Weather History for KTNB - October, 2013

Change the Weather History Date:

Wednesday, October 23, 2013

  Actual Average (KGEV) Record (KGEV)
Temperature  
Mean Temperature 41 °F -  
Max Temperature 49 °F 62 °F 73 °F (1984)
Min Temperature 33 °F 34 °F 18 °F (1987)
Degree Days  
Heating Degree Days 24    
Moisture  
Dew Point 33 °F    
Average Humidity 72    
Maximum Humidity 100    
Minimum Humidity 51    
Precipitation  
Precipitation 0.03 in - - ()
Sea Level Pressure  
Sea Level Pressure 29.84 in    
Wind  
Wind Speed 12 mph (WNW)    
Max Wind Speed 30 mph    
Max Gust Speed 44 mph    
Visibility 10 miles    
Events Rain    
Averages and records for this station are not official NWS values.
T = Trace of Precipitation, MM = Missing Value Source: NWS Daily Summary

Daily Weather History Graph

Daily Weather History Graph

Search for Another Location

Airport or City:

Trip Planner

Search our weather history database for the weather conditions in past years. The results will help you decide how hot, cold, wet, or windy it might be!

Date:

Astronomy

Oct. 23, 2013 Rise Set
Actual Time 7:41 AM EDT 6:40 PM EDT
Civil Twilight 7:14 AM EDT 7:06 PM EDT
Nautical Twilight 6:44 AM EDT 7:36 PM EDT
Astronomical Twilight 6:14 AM EDT 8:06 PM EDT
Moon 10:14 PM EDT (10/23) 11:52 AM EDT (10/23)
Length of Visible Light 11h 51m
Length of Day
10h 59m
Waning Gibbous, 79% of the Moon is Illuminated
Oct 23
Waning Gibbous
Oct 26
Last Quarter
Nov 3
New
Nov 10
First Quarter
Nov 17
Full

Hourly Weather History & Observations

Time (EDT) Temp. Windchill Dew Point Humidity Pressure Visibility Wind Dir Wind Speed Gust Speed Precip Events Conditions
12:15 AM 49.6 °F - 43.3 °F 79% 29.85 in 10.0 mi West 3.5 mph - N/A   Clear
12:35 AM 45.3 °F - 44.1 °F 95% 29.84 in 10.0 mi Calm Calm - N/A   Clear
12:55 AM 45.0 °F - 43.3 °F 94% 29.83 in 10.0 mi Calm Calm - N/A   Clear
1:15 AM 44.2 °F - 44.1 °F 99% 29.83 in 10.0 mi Calm Calm - N/A   Clear
1:35 AM 44.2 °F - 44.2 °F 100% 29.82 in 10.0 mi Calm Calm - N/A   Clear
1:55 AM 43.7 °F - 43.5 °F 99% 29.81 in 10.0 mi Calm Calm - N/A   Clear
2:15 AM 45.7 °F - 45.0 °F 97% 29.81 in 10.0 mi Calm Calm - N/A   Clear
2:35 AM 48.4 °F - 44.8 °F 87% 29.80 in 10.0 mi WNW 9.2 mph 19.6 mph N/A   Clear
2:55 AM 48.2 °F - 42.3 °F 80% 29.78 in 10.0 mi WNW 12.7 mph 20.7 mph N/A   Clear
3:15 AM 48.2 °F - 41.7 °F 78% 29.78 in 10.0 mi WNW 12.7 mph 20.7 mph N/A   Clear
3:35 AM 48.2 °F - 40.8 °F 76% 29.77 in 10.0 mi WNW 18.4 mph 29.9 mph N/A   Clear
3:55 AM 47.5 °F - 37.4 °F 68% 29.76 in 10.0 mi WNW 25.3 mph 33.4 mph N/A   Clear
4:15 AM 46.9 °F - 36.3 °F 67% 29.76 in 10.0 mi WNW 24.2 mph 36.8 mph N/A   Clear
4:35 AM 45.9 °F 37.8 °F 35.4 °F 67% 29.76 in 10.0 mi WNW 21.9 mph 32.2 mph N/A   Clear
4:55 AM 45.0 °F 37.1 °F 32.9 °F 63% 29.76 in 10.0 mi WNW 19.6 mph 40.3 mph N/A   Clear
5:15 AM 44.6 °F 37.8 °F 34.0 °F 66% 29.77 in 10.0 mi WNW 15.0 mph 29.9 mph N/A   Clear
5:35 AM 43.9 °F 37.5 °F 34.7 °F 70% 29.78 in 10.0 mi West 12.7 mph 20.7 mph N/A   Clear
5:55 AM 43.7 °F 37.7 °F 34.9 °F 71% 29.77 in 10.0 mi WNW 11.5 mph 19.6 mph N/A   Clear
6:15 AM 43.7 °F 38.1 °F 35.6 °F 73% 29.76 in 10.0 mi WNW 10.4 mph 23.0 mph N/A   Clear
6:35 AM 43.3 °F 35.2 °F 35.8 °F 75% 29.76 in 10.0 mi WNW 18.4 mph 25.3 mph N/A   Clear
6:55 AM 43.7 °F 37.3 °F 36.0 °F 74% 29.76 in 10.0 mi WNW 12.7 mph - N/A   Clear
7:15 AM 43.9 °F 37.9 °F 36.3 °F 75% 29.77 in 10.0 mi West 11.5 mph - N/A   Clear
7:35 AM 44.1 °F 38.6 °F 36.7 °F 75% 29.76 in 10.0 mi WNW 10.4 mph 16.1 mph N/A   Light Drizzle
7:55 AM 43.7 °F 38.1 °F 38.1 °F 81% 29.77 in 7.0 mi West 10.4 mph - N/A   Drizzle
8:15 AM 43.3 °F 37.2 °F 38.7 °F 84% 29.75 in 10.0 mi WNW 11.5 mph - N/A   Scattered Clouds
8:35 AM 43.7 °F 41.1 °F 39.4 °F 85% 29.77 in 10.0 mi WNW 4.6 mph - N/A Rain Light Rain
8:55 AM 44.1 °F 39.5 °F 39.2 °F 83% 29.78 in 10.0 mi WNW 8.1 mph 16.1 mph N/A   Light Drizzle
9:15 AM 45.5 °F 41.3 °F 39.0 °F 78% 29.77 in 10.0 mi West 8.1 mph - N/A   Clear
9:35 AM 46.4 °F 41.9 °F 38.3 °F 73% 29.77 in 10.0 mi West 9.2 mph 16.1 mph N/A   Clear
9:55 AM 46.6 °F - 37.0 °F 69% 29.78 in 10.0 mi WNW 25.3 mph 40.3 mph N/A Rain Light Rain
10:15 AM 40.6 °F 32.3 °F 36.9 °F 86% 29.79 in 2.5 mi West 16.1 mph 34.5 mph 0.03 in Rain Rain
10:35 AM 42.1 °F 34.9 °F 37.2 °F 83% 29.78 in 10.0 mi WNW 13.8 mph 23.0 mph 0.03 in   Scattered Clouds
10:55 AM 42.4 °F 33.8 °F 36.0 °F 78% 29.79 in 10.0 mi WNW 19.6 mph 28.8 mph 0.03 in   Clear
11:15 AM 43.5 °F 35.5 °F 35.2 °F 73% 29.79 in 10.0 mi NW 18.4 mph 26.5 mph N/A   Clear
11:35 AM 44.8 °F 35.9 °F 33.4 °F 64% 29.78 in 10.0 mi WNW 24.2 mph 36.8 mph N/A   Clear
11:55 AM 46.0 °F 39.0 °F 32.7 °F 60% 29.79 in 10.0 mi West 17.3 mph 26.5 mph N/A   Clear
12:15 PM 46.2 °F 38.3 °F 31.3 °F 56% 29.80 in 10.0 mi WNW 21.9 mph 34.5 mph N/A   Clear
12:35 PM 46.4 °F 37.2 °F 30.2 °F 53% 29.80 in 10.0 mi WNW 29.9 mph 36.8 mph N/A   Clear
12:55 PM 46.6 °F - 29.3 °F 51% 29.79 in 10.0 mi WNW 26.5 mph 40.3 mph N/A   Clear
1:15 PM 46.0 °F 38.0 °F 30.4 °F 54% 29.80 in 10.0 mi NW 21.9 mph 43.7 mph N/A   Clear
1:35 PM 43.7 °F 34.3 °F 29.1 °F 57% 29.82 in 10.0 mi WNW 25.3 mph 40.3 mph N/A   Clear
1:55 PM 44.1 °F 35.7 °F 28.9 °F 55% 29.82 in 10.0 mi WNW 20.7 mph 33.4 mph N/A   Clear
2:15 PM 43.0 °F 34.0 °F 29.8 °F 60% 29.82 in 10.0 mi NW 21.9 mph 34.5 mph N/A   Clear
2:35 PM 42.3 °F 34.1 °F 29.1 °F 60% 29.82 in 10.0 mi NW 17.3 mph 29.9 mph N/A   Clear
2:55 PM 42.1 °F 34.9 °F 30.0 °F 62% 29.83 in 10.0 mi NW 13.8 mph 26.5 mph N/A   Clear
3:15 PM 40.1 °F 30.2 °F 31.8 °F 72% 29.85 in 7.0 mi NW 21.9 mph 36.8 mph N/A   Light Drizzle
3:35 PM 40.1 °F 29.5 °F 30.0 °F 67% 29.85 in 10.0 mi West 25.3 mph 42.6 mph N/A   Clear
3:55 PM 39.6 °F 30.0 °F 30.6 °F 70% 29.86 in 10.0 mi WNW 19.6 mph 36.8 mph N/A   Clear
4:15 PM 39.2 °F 29.6 °F 28.9 °F 67% 29.86 in 10.0 mi NW 19.6 mph 33.4 mph N/A   Clear
4:35 PM 39.2 °F 29.6 °F 28.9 °F 67% 29.87 in 10.0 mi NW 19.6 mph 32.2 mph N/A   Clear
4:55 PM 39.2 °F 30.8 °F 27.9 °F 64% 29.87 in 10.0 mi NW 15.0 mph 33.4 mph N/A   Clear
5:15 PM 38.7 °F 29.1 °F 27.9 °F 65% 29.88 in 10.0 mi WNW 18.4 mph 33.4 mph N/A   Clear
5:35 PM 38.3 °F 28.1 °F 28.4 °F 68% 29.89 in 10.0 mi WNW 20.7 mph 35.7 mph N/A   Clear
5:55 PM 38.1 °F 27.9 °F 27.5 °F 66% 29.89 in 10.0 mi WNW 20.7 mph 32.2 mph N/A   Clear
6:15 PM 37.8 °F 28.0 °F 28.0 °F 68% 29.89 in 10.0 mi WNW 18.4 mph 31.1 mph N/A   Clear
6:35 PM 37.4 °F 27.5 °F 27.9 °F 68% 29.90 in 10.0 mi WNW 18.4 mph 32.2 mph N/A   Clear
6:55 PM 37.4 °F 26.9 °F 27.5 °F 67% 29.91 in 10.0 mi NW 20.7 mph 27.6 mph N/A   Clear
7:15 PM 36.5 °F 25.2 °F 28.8 °F 74% 29.92 in 10.0 mi WNW 23.0 mph 38.0 mph N/A   Clear
7:35 PM 36.1 °F 24.7 °F 27.9 °F 72% 29.93 in 10.0 mi NW 23.0 mph 40.3 mph N/A   Clear
7:55 PM 36.1 °F 25.9 °F 27.1 °F 70% 29.94 in 10.0 mi NW 18.4 mph 33.4 mph N/A   Clear
8:15 PM 36.0 °F 25.0 °F 26.4 °F 68% 29.94 in 10.0 mi WNW 20.7 mph 28.8 mph N/A   Clear
8:35 PM 36.0 °F 25.0 °F 26.6 °F 69% 29.94 in 10.0 mi WNW 20.7 mph 32.2 mph N/A   Clear
8:55 PM 35.6 °F 25.2 °F 27.7 °F 73% 29.94 in 10.0 mi WNW 18.4 mph 25.3 mph N/A   Clear
9:15 PM 35.6 °F 26.2 °F 27.3 °F 72% 29.95 in 10.0 mi WNW 15.0 mph 26.5 mph N/A   Clear
9:35 PM 35.2 °F 26.2 °F 27.7 °F 74% 29.95 in 10.0 mi WNW 13.8 mph 24.2 mph N/A   Clear
9:55 PM 34.7 °F 24.0 °F 27.9 °F 76% 29.97 in 10.0 mi NW 18.4 mph 24.2 mph N/A   Clear
10:15 PM 34.5 °F 24.8 °F 26.4 °F 72% 29.97 in 10.0 mi NW 15.0 mph 24.2 mph N/A   Clear
10:35 PM 34.5 °F 24.1 °F 24.6 °F 67% 29.98 in 10.0 mi NW 17.3 mph 27.6 mph N/A   Clear
10:55 PM 34.5 °F 26.7 °F 25.3 °F 69% 29.99 in 10.0 mi WNW 10.4 mph 24.2 mph N/A   Clear
11:15 PM 34.0 °F 25.5 °F 25.3 °F 71% 29.99 in 10.0 mi WNW 11.5 mph 23.0 mph N/A   Clear
11:35 PM 33.8 °F 23.5 °F 25.5 °F 72% 29.99 in 10.0 mi WNW 16.1 mph 25.3 mph N/A   Clear
11:55 PM 33.6 °F 22.6 °F 25.7 °F 73% 29.99 in 10.0 mi WNW 18.4 mph 24.2 mph N/A   Clear